createdAt,value
2024-04-11T00:02:39.113Z,4.78
2024-04-11T00:07:52.031Z,4.15
2024-04-11T00:13:00.758Z,8.27
2024-04-11T00:18:10.505Z,5.00
2024-04-11T00:23:23.365Z,4.10
2024-04-11T00:28:32.673Z,5.10
2024-04-11T00:39:08.564Z,5.60
2024-04-11T00:44:18.013Z,2.72
2024-04-11T00:49:27.535Z,4.43
2024-04-11T00:54:39.108Z,3.80
2024-04-11T00:59:48.070Z,3.35
2024-04-11T01:04:56.878Z,3.28
2024-04-11T01:10:10.058Z,3.38
2024-04-11T01:15:19.047Z,2.53
2024-04-11T01:25:40.425Z,2.63
2024-04-11T01:30:49.163Z,2.38
2024-04-11T01:35:58.159Z,8.88
2024-04-11T01:41:11.391Z,6.07
2024-04-11T01:46:20.382Z,2.97
2024-04-11T01:56:40.993Z,5.43
2024-04-11T02:01:49.769Z,2.40
2024-04-11T02:06:59.945Z,2.75
2024-04-11T02:12:13.288Z,2.88
2024-04-11T02:17:22.283Z,4.03
2024-04-11T02:22:55.388Z,3.80
2024-04-11T02:28:07.634Z,5.80
2024-04-11T02:33:16.559Z,7.93
2024-04-11T02:38:27.535Z,4.47
2024-04-11T02:43:41.707Z,2.85
2024-04-11T02:48:51.552Z,3.95
2024-04-11T02:54:00.623Z,4.57
2024-04-11T02:59:13.178Z,6.22
2024-04-11T03:04:23.709Z,5.80
2024-04-11T03:09:32.592Z,2.78
2024-04-11T03:14:44.221Z,4.72
2024-04-11T03:19:52.878Z,2.60
2024-04-11T03:25:01.486Z,5.22
2024-04-11T03:30:15.718Z,5.57
2024-04-11T03:35:24.492Z,4.15
2024-04-11T03:40:33.673Z,5.43
2024-04-11T03:45:45.306Z,4.93
2024-04-11T03:50:54.034Z,6.10
2024-04-11T03:56:02.819Z,4.47
2024-04-11T04:01:16.866Z,5.07
2024-04-11T04:06:25.883Z,4.60
2024-04-11T04:11:34.733Z,2.45
2024-04-11T04:16:48.162Z,5.63
2024-04-11T04:21:56.945Z,5.50
2024-04-11T04:27:05.988Z,3.40
2024-04-11T04:32:18.549Z,5.18
2024-04-11T04:37:27.131Z,3.40
2024-04-11T04:42:36.211Z,5.95
2024-04-11T04:52:59.055Z,7.20
2024-04-11T04:58:08.608Z,4.70
2024-04-11T05:03:20.499Z,5.15
2024-04-11T05:08:33.713Z,5.20
2024-04-11T05:13:45.726Z,4.63
2024-04-11T05:18:58.729Z,32.38
2024-04-11T05:24:07.593Z,134.55
2024-04-11T05:29:17.579Z,171.52
2024-04-11T05:34:31.374Z,141.77
2024-04-11T05:39:40.222Z,106.47
2024-04-11T05:44:49.252Z,54.95
2024-04-11T05:50:01.286Z,27.92
2024-04-11T05:55:12.416Z,15.10
2024-04-11T06:00:23.885Z,6.80
2024-04-11T06:05:35.548Z,5.18
2024-04-11T06:10:45.853Z,5.50
2024-04-11T06:15:55.305Z,6.13
2024-04-11T06:21:07.026Z,5.32
2024-04-11T06:26:18.575Z,7.93
2024-04-11T06:31:30.295Z,7.95
2024-04-11T06:36:41.536Z,2.42
2024-04-11T06:41:50.909Z,4.22
2024-04-11T06:46:59.619Z,6.82
2024-04-11T06:52:14.371Z,7.00
2024-04-11T06:57:23.777Z,3.47
2024-04-11T07:02:32.580Z,2.58
2024-04-11T07:07:47.364Z,4.13
2024-04-11T07:13:01.373Z,3.40
2024-04-11T07:18:16.714Z,4.00
2024-04-11T07:23:29.947Z,4.63
2024-04-11T07:28:41.553Z,5.35
2024-04-11T07:33:52.508Z,7.10
2024-04-11T07:39:05.208Z,4.75
2024-04-11T07:44:19.890Z,5.53
2024-04-11T07:49:34.009Z,9.40
2024-04-11T07:54:48.387Z,2.05
2024-04-11T08:00:01.897Z,6.40
2024-04-11T08:05:21.193Z,4.55
2024-04-11T08:10:36.877Z,4.38
2024-04-11T08:15:46.438Z,5.05
2024-04-11T08:20:56.462Z,3.92
2024-04-11T08:26:08.226Z,4.10
2024-04-11T08:31:17.094Z,6.22
2024-04-11T08:41:38.540Z,4.38
2024-04-11T08:46:47.073Z,7.00
2024-04-11T08:51:56.951Z,6.88
2024-04-11T08:57:09.803Z,9.05
2024-04-11T09:02:18.669Z,2.67
2024-04-11T09:07:27.880Z,6.18
2024-04-11T09:12:39.554Z,2.28
2024-04-11T09:17:52.656Z,5.82
2024-04-11T09:23:01.627Z,3.80
2024-04-11T09:28:13.322Z,5.88
2024-04-11T09:33:23.412Z,4.43
2024-04-11T09:38:32.948Z,6.20
2024-04-11T09:43:46.881Z,4.55
2024-04-11T09:48:56.631Z,5.75
2024-04-11T09:54:06.235Z,2.70
2024-04-11T09:59:18.253Z,4.13
2024-04-11T10:04:37.718Z,4.20
2024-04-11T10:09:54.592Z,3.75
2024-04-11T10:15:08.501Z,4.63
2024-04-11T10:20:21.807Z,6.50
2024-04-11T10:25:35.018Z,4.75
2024-04-11T10:30:52.822Z,5.85
2024-04-11T10:36:08.578Z,2.50
2024-04-11T10:41:21.185Z,5.60
2024-04-11T10:46:33.137Z,3.13
2024-04-11T10:51:42.445Z,2.08
2024-04-11T10:56:51.645Z,2.38
2024-04-11T11:02:10.575Z,4.70
2024-04-11T11:07:21.778Z,3.45
2024-04-11T11:12:30.731Z,3.42
2024-04-11T11:17:47.124Z,2.83
2024-04-11T11:22:58.639Z,4.22
2024-04-11T11:28:07.693Z,2.85
2024-04-11T11:33:19.817Z,3.75
2024-04-11T11:38:28.674Z,2.53
2024-04-11T11:43:45.515Z,6.93
2024-04-11T11:48:56.979Z,2.45
2024-04-11T11:54:14.199Z,3.90
2024-04-11T11:59:23.242Z,3.17
2024-04-11T12:09:44.887Z,3.00
2024-04-11T12:14:56.748Z,6.40
2024-04-11T12:20:16.828Z,6.55
2024-04-11T12:25:26.109Z,7.35
2024-04-11T12:30:34.938Z,6.78
2024-04-11T12:35:47.725Z,3.75
2024-04-11T12:41:00.241Z,5.22
2024-04-11T12:46:11.133Z,6.28
2024-04-11T12:51:22.546Z,3.05
2024-04-11T12:56:34.687Z,2.92
2024-04-11T13:01:43.746Z,3.38
2024-04-11T13:07:00.015Z,3.58
2024-04-11T13:12:11.160Z,3.88
2024-04-11T13:17:24.660Z,4.95
2024-04-11T13:22:43.411Z,3.53
2024-04-11T13:27:54.830Z,4.05
2024-04-11T13:33:05.050Z,5.55
2024-04-11T13:38:22.982Z,2.92
2024-04-11T13:43:31.625Z,3.38
2024-04-11T13:48:45.283Z,2.65
2024-04-11T13:53:59.116Z,3.45
2024-04-11T13:59:17.048Z,4.50
2024-04-11T14:04:47.460Z,6.10
2024-04-11T14:15:11.552Z,5.32
2024-04-11T14:20:33.565Z,4.40
2024-04-11T14:25:46.187Z,5.78
2024-04-11T14:31:10.979Z,4.47
2024-04-11T14:36:32.050Z,3.50
2024-04-11T14:41:44.267Z,4.25
2024-04-11T14:46:53.417Z,4.15
2024-04-11T14:52:05.816Z,4.97
2024-04-11T14:57:18.208Z,5.80
2024-04-11T15:02:30.951Z,5.30
2024-04-11T15:07:40.277Z,7.68
2024-04-11T15:12:52.244Z,2.17
2024-04-11T15:18:05.098Z,5.13
2024-04-11T15:23:14.442Z,3.70
2024-04-11T15:28:33.470Z,3.35
2024-04-11T15:33:56.188Z,3.83
2024-04-11T15:39:17.723Z,4.07
2024-04-11T15:44:39.292Z,3.42
2024-04-11T15:49:58.892Z,3.50
2024-04-11T15:55:16.527Z,4.07
2024-04-11T16:05:54.979Z,2.42
2024-04-11T16:11:05.101Z,3.58
2024-04-11T16:16:31.237Z,5.43
2024-04-11T16:21:45.900Z,12.43
2024-04-11T16:26:55.049Z,2.92
2024-04-11T16:32:07.432Z,4.18
2024-04-11T16:37:24.126Z,2.67
2024-04-11T16:42:36.470Z,3.10
2024-04-11T16:47:52.115Z,3.78
2024-04-11T16:53:03.331Z,3.30
2024-04-11T16:58:21.789Z,3.42
2024-04-11T17:03:36.121Z,2.28
2024-04-11T17:08:47.482Z,6.45
2024-04-11T17:14:00.503Z,7.43
2024-04-11T17:19:30.668Z,12.15
2024-04-11T17:24:42.093Z,10.63
2024-04-11T17:30:01.948Z,6.68
2024-04-11T17:35:47.867Z,5.63
2024-04-11T17:41:08.187Z,6.35
2024-04-11T17:46:20.852Z,3.03
2024-04-11T17:51:36.013Z,39.55
2024-04-11T17:56:47.114Z,13.95
2024-04-11T18:01:59.136Z,9.80
2024-04-11T18:07:16.288Z,10.85
2024-04-11T18:12:28.058Z,13.25
2024-04-11T18:17:39.356Z,11.50
2024-04-11T18:22:55.265Z,7.60
2024-04-11T18:28:13.942Z,18.58
2024-04-11T18:33:31.646Z,15.98
2024-04-11T18:38:46.997Z,13.63
2024-04-11T18:44:01.111Z,8.60
2024-04-11T18:49:20.158Z,6.32
2024-04-11T18:59:47.904Z,12.77
2024-04-11T19:05:12.414Z,11.70
2024-04-11T19:10:28.716Z,6.97
2024-04-11T19:15:50.017Z,9.35
2024-04-11T19:21:05.586Z,9.43
2024-04-11T19:26:26.981Z,16.63
2024-04-11T19:31:48.474Z,10.88
2024-04-11T19:37:05.328Z,18.38
2024-04-11T19:42:34.668Z,17.73
2024-04-11T19:47:47.382Z,14.10
2024-04-11T19:53:04.358Z,12.35
2024-04-11T19:58:18.368Z,11.98
2024-04-11T20:03:42.143Z,14.90
2024-04-11T20:08:52.166Z,16.17
2024-04-11T20:14:20.694Z,8.63
2024-04-11T20:19:41.119Z,8.65
2024-04-11T20:25:03.372Z,6.53
2024-04-11T20:30:22.383Z,7.10
2024-04-11T20:35:45.902Z,7.68
2024-04-11T20:41:05.888Z,7.18
2024-04-11T20:46:23.592Z,8.20
2024-04-11T20:51:49.451Z,6.07
2024-04-11T20:57:31.586Z,7.68
2024-04-11T21:02:59.687Z,5.93
2024-04-11T21:08:25.490Z,7.63
2024-04-11T21:13:50.098Z,8.13
2024-04-11T21:19:17.334Z,7.82
2024-04-11T21:24:41.886Z,10.05
2024-04-11T21:30:15.082Z,10.10
2024-04-11T21:35:29.516Z,7.70
2024-04-11T21:40:38.544Z,9.70
2024-04-11T21:45:47.264Z,9.00
2024-04-11T21:51:01.229Z,9.65
2024-04-11T21:56:11.738Z,8.95
2024-04-11T22:01:20.842Z,9.77
2024-04-11T22:06:37.965Z,7.88
2024-04-11T22:11:49.121Z,7.07
2024-04-11T22:16:59.426Z,16.38
2024-04-11T22:22:16.198Z,13.82
2024-04-11T22:27:28.982Z,7.63
2024-04-11T22:32:42.147Z,11.75
2024-04-11T22:37:56.737Z,9.65
2024-04-11T22:43:06.129Z,8.25
2024-04-11T22:48:23.537Z,7.10
2024-04-11T22:53:35.163Z,12.75
2024-04-11T22:58:48.914Z,8.30
2024-04-11T23:04:00.037Z,13.23
2024-04-11T23:09:11.967Z,7.50
2024-04-11T23:14:20.860Z,7.40
2024-04-11T23:19:32.692Z,8.95
2024-04-11T23:24:44.267Z,7.00
2024-04-11T23:29:53.216Z,6.75
2024-04-11T23:35:07.539Z,6.95
2024-04-11T23:40:25.590Z,10.35
2024-04-11T23:45:34.350Z,7.97
2024-04-11T23:50:43.984Z,5.18
2024-04-11T23:56:12.773Z,5.93
